sensor_id;sensor_type;location;lat;lon;timestamp;P1;durP1;ratioP1;P2;durP2;ratioP2
10283;SDS011;5187;52.378;9.018;2022-09-13T00:00:48;6.23;;;5.63;;
10283;SDS011;5187;52.378;9.018;2022-09-13T00:03:17;5.93;;;5.27;;
10283;SDS011;5187;52.378;9.018;2022-09-13T00:05:46;6.43;;;5.67;;
10283;SDS011;5187;52.378;9.018;2022-09-13T00:08:14;6.93;;;5.43;;
10283;SDS011;5187;52.378;9.018;2022-09-13T00:10:45;6.27;;;5.67;;
10283;SDS011;5187;52.378;9.018;2022-09-13T00:13:14;5.80;;;5.30;;
10283;SDS011;5187;52.378;9.018;2022-09-13T00:15:43;6.03;;;5.43;;
10283;SDS011;5187;52.378;9.018;2022-09-13T00:18:12;6.53;;;5.83;;
10283;SDS011;5187;52.378;9.018;2022-09-13T00:20:43;8.20;;;5.67;;
10283;SDS011;5187;52.378;9.018;2022-09-13T00:23:12;5.80;;;5.30;;
10283;SDS011;5187;52.378;9.018;2022-09-13T00:25:40;6.33;;;5.53;;
10283;SDS011;5187;52.378;9.018;2022-09-13T00:28:10;7.05;;;5.50;;
10283;SDS011;5187;52.378;9.018;2022-09-13T00:30:38;6.20;;;5.60;;
10283;SDS011;5187;52.378;9.018;2022-09-13T00:33:07;6.60;;;5.63;;
10283;SDS011;5187;52.378;9.018;2022-09-13T00:35:35;6.37;;;5.70;;
10283;SDS011;5187;52.378;9.018;2022-09-13T00:38:03;6.30;;;5.70;;
10283;SDS011;5187;52.378;9.018;2022-09-13T00:40:35;6.23;;;5.60;;
10283;SDS011;5187;52.378;9.018;2022-09-13T00:43:04;5.90;;;5.40;;
10283;SDS011;5187;52.378;9.018;2022-09-13T00:45:34;7.43;;;6.10;;
10283;SDS011;5187;52.378;9.018;2022-09-13T00:48:03;7.93;;;5.67;;
10283;SDS011;5187;52.378;9.018;2022-09-13T00:50:33;5.87;;;5.27;;
10283;SDS011;5187;52.378;9.018;2022-09-13T00:53:04;6.00;;;5.40;;
10283;SDS011;5187;52.378;9.018;2022-09-13T00:55:36;6.67;;;5.50;;
10283;SDS011;5187;52.378;9.018;2022-09-13T00:58:07;6.20;;;5.60;;
10283;SDS011;5187;52.378;9.018;2022-09-13T01:00:38;6.20;;;5.60;;
10283;SDS011;5187;52.378;9.018;2022-09-13T01:03:08;5.83;;;5.23;;
10283;SDS011;5187;52.378;9.018;2022-09-13T01:05:38;6.83;;;5.40;;
10283;SDS011;5187;52.378;9.018;2022-09-13T01:08:09;6.50;;;5.90;;
10283;SDS011;5187;52.378;9.018;2022-09-13T01:10:41;6.27;;;5.67;;
10283;SDS011;5187;52.378;9.018;2022-09-13T01:13:11;6.53;;;5.73;;
10283;SDS011;5187;52.378;9.018;2022-09-13T01:15:42;6.00;;;5.40;;
10283;SDS011;5187;52.378;9.018;2022-09-13T01:18:11;6.53;;;5.93;;
10283;SDS011;5187;52.378;9.018;2022-09-13T01:20:44;5.97;;;5.43;;
10283;SDS011;5187;52.378;9.018;2022-09-13T01:23:27;6.50;;;5.90;;
10283;SDS011;5187;52.378;9.018;2022-09-13T01:26:06;7.87;;;6.17;;
10283;SDS011;5187;52.378;9.018;2022-09-13T01:28:43;6.00;;;5.40;;
10283;SDS011;5187;52.378;9.018;2022-09-13T01:31:15;5.50;;;5.00;;
10283;SDS011;5187;52.378;9.018;2022-09-13T01:33:51;5.55;;;5.05;;
10283;SDS011;5187;52.378;9.018;2022-09-13T01:36:28;5.47;;;4.97;;
10283;SDS011;5187;52.378;9.018;2022-09-13T01:39:00;5.30;;;4.85;;
10283;SDS011;5187;52.378;9.018;2022-09-13T01:41:33;4.80;;;4.40;;
10283;SDS011;5187;52.378;9.018;2022-09-13T01:44:10;5.10;;;4.70;;
10283;SDS011;5187;52.378;9.018;2022-09-13T01:46:44;5.20;;;4.70;;
10283;SDS011;5187;52.378;9.018;2022-09-13T01:49:16;5.60;;;4.68;;
10283;SDS011;5187;52.378;9.018;2022-09-13T01:51:48;5.10;;;4.60;;
10283;SDS011;5187;52.378;9.018;2022-09-13T01:54:18;5.45;;;4.50;;
10283;SDS011;5187;52.378;9.018;2022-09-13T01:56:52;5.32;;;4.82;;
10283;SDS011;5187;52.378;9.018;2022-09-13T01:59:28;5.20;;;4.80;;
10283;SDS011;5187;52.378;9.018;2022-09-13T02:01:59;5.85;;;4.57;;
10283;SDS011;5187;52.378;9.018;2022-09-13T02:04:32;5.03;;;4.60;;
10283;SDS011;5187;52.378;9.018;2022-09-13T02:07:04;5.75;;;5.15;;
10283;SDS011;5187;52.378;9.018;2022-09-13T02:09:35;6.18;;;4.78;;
10283;SDS011;5187;52.378;9.018;2022-09-13T02:12:06;5.55;;;4.88;;
10283;SDS011;5187;52.378;9.018;2022-09-13T02:14:36;5.15;;;4.75;;
10283;SDS011;5187;52.378;9.018;2022-09-13T02:17:07;6.60;;;4.82;;
10283;SDS011;5187;52.378;9.018;2022-09-13T02:19:39;5.65;;;5.15;;
10283;SDS011;5187;52.378;9.018;2022-09-13T02:22:09;6.63;;;5.22;;
10283;SDS011;5187;52.378;9.018;2022-09-13T02:24:39;6.03;;;5.43;;
10283;SDS011;5187;52.378;9.018;2022-09-13T02:27:10;5.82;;;5.25;;
10283;SDS011;5187;52.378;9.018;2022-09-13T02:29:40;6.60;;;6.00;;
10283;SDS011;5187;52.378;9.018;2022-09-13T02:32:12;6.60;;;6.00;;
10283;SDS011;5187;52.378;9.018;2022-09-13T02:34:42;6.88;;;6.05;;
10283;SDS011;5187;52.378;9.018;2022-09-13T02:37:12;6.38;;;5.85;;
10283;SDS011;5187;52.378;9.018;2022-09-13T02:39:42;6.35;;;5.75;;
10283;SDS011;5187;52.378;9.018;2022-09-13T02:42:13;6.70;;;6.00;;
10283;SDS011;5187;52.378;9.018;2022-09-13T02:44:43;7.30;;;6.10;;
10283;SDS011;5187;52.378;9.018;2022-09-13T02:47:15;6.35;;;5.75;;
10283;SDS011;5187;52.378;9.018;2022-09-13T02:49:49;8.57;;;6.38;;
10283;SDS011;5187;52.378;9.018;2022-09-13T02:52:24;7.07;;;6.38;;
10283;SDS011;5187;52.378;9.018;2022-09-13T02:54:57;7.18;;;6.30;;
10283;SDS011;5187;52.378;9.018;2022-09-13T02:57:31;6.73;;;6.03;;
10283;SDS011;5187;52.378;9.018;2022-09-13T03:00:01;7.32;;;6.45;;
10283;SDS011;5187;52.378;9.018;2022-09-13T03:02:31;9.10;;;7.00;;
10283;SDS011;5187;52.378;9.018;2022-09-13T03:05:00;7.30;;;6.60;;
10283;SDS011;5187;52.378;9.018;2022-09-13T03:07:29;7.47;;;6.77;;
10283;SDS011;5187;52.378;9.018;2022-09-13T03:09:58;8.35;;;7.55;;
10283;SDS011;5187;52.378;9.018;2022-09-13T03:12:39;7.35;;;6.68;;
10283;SDS011;5187;52.378;9.018;2022-09-13T03:15:13;8.10;;;7.38;;
10283;SDS011;5187;52.378;9.018;2022-09-13T03:17:51;7.27;;;6.63;;
10283;SDS011;5187;52.378;9.018;2022-09-13T03:20:23;7.60;;;6.53;;
10283;SDS011;5187;52.378;9.018;2022-09-13T03:23:08;7.57;;;6.95;;
10283;SDS011;5187;52.378;9.018;2022-09-13T03:25:47;7.37;;;6.77;;
10283;SDS011;5187;52.378;9.018;2022-09-13T03:28:23;7.80;;;7.00;;
10283;SDS011;5187;52.378;9.018;2022-09-13T03:30:55;9.17;;;6.53;;
10283;SDS011;5187;52.378;9.018;2022-09-13T03:33:28;8.23;;;7.43;;
10283;SDS011;5187;52.378;9.018;2022-09-13T03:36:01;7.97;;;7.17;;
10283;SDS011;5187;52.378;9.018;2022-09-13T03:38:34;7.97;;;7.17;;
10283;SDS011;5187;52.378;9.018;2022-09-13T03:41:05;8.53;;;7.60;;
10283;SDS011;5187;52.378;9.018;2022-09-13T03:43:35;8.33;;;7.57;;
10283;SDS011;5187;52.378;9.018;2022-09-13T03:46:07;8.60;;;7.80;;
10283;SDS011;5187;52.378;9.018;2022-09-13T03:48:38;8.67;;;7.83;;
10283;SDS011;5187;52.378;9.018;2022-09-13T03:51:08;8.77;;;7.97;;
10283;SDS011;5187;52.378;9.018;2022-09-13T03:53:38;8.37;;;7.67;;
10283;SDS011;5187;52.378;9.018;2022-09-13T03:56:11;10.03;;;7.43;;
10283;SDS011;5187;52.378;9.018;2022-09-13T03:58:40;10.77;;;8.00;;
10283;SDS011;5187;52.378;9.018;2022-09-13T04:01:09;7.87;;;7.10;;
10283;SDS011;5187;52.378;9.018;2022-09-13T04:03:39;8.70;;;7.80;;
10283;SDS011;5187;52.378;9.018;2022-09-13T04:06:07;9.00;;;8.10;;
10283;SDS011;5187;52.378;9.018;2022-09-13T04:08:36;9.03;;;8.13;;
10283;SDS011;5187;52.378;9.018;2022-09-13T04:11:04;10.53;;;8.57;;
10283;SDS011;5187;52.378;9.018;2022-09-13T04:13:34;8.27;;;7.57;;
10283;SDS011;5187;52.378;9.018;2022-09-13T04:16:04;9.80;;;7.67;;
10283;SDS011;5187;52.378;9.018;2022-09-13T04:18:33;9.03;;;8.20;;
10283;SDS011;5187;52.378;9.018;2022-09-13T04:21:03;9.13;;;8.33;;
10283;SDS011;5187;52.378;9.018;2022-09-13T04:23:31;11.40;;;8.60;;
10283;SDS011;5187;52.378;9.018;2022-09-13T04:26:00;9.40;;;8.50;;
10283;SDS011;5187;52.378;9.018;2022-09-13T04:28:28;9.10;;;8.30;;
10283;SDS011;5187;52.378;9.018;2022-09-13T04:30:57;9.33;;;8.27;;
10283;SDS011;5187;52.378;9.018;2022-09-13T04:33:25;9.30;;;8.23;;
10283;SDS011;5187;52.378;9.018;2022-09-13T04:35:56;9.30;;;8.17;;
10283;SDS011;5187;52.378;9.018;2022-09-13T04:38:26;9.57;;;8.67;;
10283;SDS011;5187;52.378;9.018;2022-09-13T04:40:56;10.23;;;8.20;;
10283;SDS011;5187;52.378;9.018;2022-09-13T04:43:25;8.67;;;7.87;;
10283;SDS011;5187;52.378;9.018;2022-09-13T04:45:53;8.25;;;7.45;;
10283;SDS011;5187;52.378;9.018;2022-09-13T04:48:22;9.57;;;7.83;;
10283;SDS011;5187;52.378;9.018;2022-09-13T04:50:51;7.87;;;7.17;;
10283;SDS011;5187;52.378;9.018;2022-09-13T04:53:19;8.97;;;7.70;;
10283;SDS011;5187;52.378;9.018;2022-09-13T04:55:49;8.60;;;7.80;;
10283;SDS011;5187;52.378;9.018;2022-09-13T04:58:19;8.82;;;7.93;;
10283;SDS011;5187;52.378;9.018;2022-09-13T05:00:48;8.80;;;8.00;;
10283;SDS011;5187;52.378;9.018;2022-09-13T05:03:21;8.95;;;7.80;;
10283;SDS011;5187;52.378;9.018;2022-09-13T05:05:50;8.25;;;7.45;;
10283;SDS011;5187;52.378;9.018;2022-09-13T05:08:18;8.43;;;7.63;;
10283;SDS011;5187;52.378;9.018;2022-09-13T05:10:48;8.15;;;7.43;;
10283;SDS011;5187;52.378;9.018;2022-09-13T05:13:16;8.48;;;7.57;;
10283;SDS011;5187;52.378;9.018;2022-09-13T05:15:45;8.02;;;7.22;;
10283;SDS011;5187;52.378;9.018;2022-09-13T05:18:14;8.87;;;7.37;;
10283;SDS011;5187;52.378;9.018;2022-09-13T05:20:42;7.97;;;7.27;;
10283;SDS011;5187;52.378;9.018;2022-09-13T05:23:11;8.10;;;7.30;;
10283;SDS011;5187;52.378;9.018;2022-09-13T05:25:39;7.63;;;6.82;;
10283;SDS011;5187;52.378;9.018;2022-09-13T05:28:09;8.25;;;7.53;;
10283;SDS011;5187;52.378;9.018;2022-09-13T05:30:37;7.63;;;6.93;;
10283;SDS011;5187;52.378;9.018;2022-09-13T05:33:07;8.55;;;7.65;;
10283;SDS011;5187;52.378;9.018;2022-09-13T05:35:39;8.48;;;7.55;;
10283;SDS011;5187;52.378;9.018;2022-09-13T05:38:07;8.05;;;7.32;;
10283;SDS011;5187;52.378;9.018;2022-09-13T05:40:36;8.63;;;7.72;;
10283;SDS011;5187;52.378;9.018;2022-09-13T05:43:04;7.72;;;7.03;;
10283;SDS011;5187;52.378;9.018;2022-09-13T05:45:34;7.30;;;6.63;;
10283;SDS011;5187;52.378;9.018;2022-09-13T05:48:02;8.10;;;7.40;;
10283;SDS011;5187;52.378;9.018;2022-09-13T05:50:31;8.23;;;7.43;;
10283;SDS011;5187;52.378;9.018;2022-09-13T05:53:19;8.45;;;7.57;;
10283;SDS011;5187;52.378;9.018;2022-09-13T05:55:47;8.18;;;7.38;;
10283;SDS011;5187;52.378;9.018;2022-09-13T05:58:16;7.95;;;6.90;;
10283;SDS011;5187;52.378;9.018;2022-09-13T06:00:47;8.43;;;7.53;;
10283;SDS011;5187;52.378;9.018;2022-09-13T06:03:19;7.63;;;6.85;;
10283;SDS011;5187;52.378;9.018;2022-09-13T06:05:48;8.35;;;7.53;;
10283;SDS011;5187;52.378;9.018;2022-09-13T06:08:17;7.95;;;7.25;;
10283;SDS011;5187;52.378;9.018;2022-09-13T06:10:51;7.85;;;7.10;;
10283;SDS011;5187;52.378;9.018;2022-09-13T06:13:20;8.27;;;7.45;;
10283;SDS011;5187;52.378;9.018;2022-09-13T06:15:50;8.18;;;7.43;;
10283;SDS011;5187;52.378;9.018;2022-09-13T06:18:18;8.32;;;7.35;;
10283;SDS011;5187;52.378;9.018;2022-09-13T06:20:47;8.68;;;7.70;;
10283;SDS011;5187;52.378;9.018;2022-09-13T06:23:15;9.10;;;7.45;;
10283;SDS011;5187;52.378;9.018;2022-09-13T06:25:44;8.23;;;7.32;;
10283;SDS011;5187;52.378;9.018;2022-09-13T06:28:12;8.88;;;7.60;;
10283;SDS011;5187;52.378;9.018;2022-09-13T06:30:40;8.18;;;7.47;;
10283;SDS011;5187;52.378;9.018;2022-09-13T06:33:10;8.23;;;7.43;;
10283;SDS011;5187;52.378;9.018;2022-09-13T06:35:39;8.70;;;7.68;;
10283;SDS011;5187;52.378;9.018;2022-09-13T06:38:07;8.00;;;7.20;;
10283;SDS011;5187;52.378;9.018;2022-09-13T06:40:36;8.95;;;8.05;;
10283;SDS011;5187;52.378;9.018;2022-09-13T06:43:05;8.68;;;7.38;;
10283;SDS011;5187;52.378;9.018;2022-09-13T06:45:33;8.77;;;7.93;;
10283;SDS011;5187;52.378;9.018;2022-09-13T06:48:02;8.85;;;7.95;;
10283;SDS011;5187;52.378;9.018;2022-09-13T06:50:32;8.93;;;7.88;;
10283;SDS011;5187;52.378;9.018;2022-09-13T06:53:00;8.70;;;7.90;;
10283;SDS011;5187;52.378;9.018;2022-09-13T06:55:29;8.82;;;7.65;;
10283;SDS011;5187;52.378;9.018;2022-09-13T06:57:57;8.68;;;7.88;;
10283;SDS011;5187;52.378;9.018;2022-09-13T07:00:26;8.95;;;7.65;;
10283;SDS011;5187;52.378;9.018;2022-09-13T07:02:54;9.40;;;8.52;;
10283;SDS011;5187;52.378;9.018;2022-09-13T07:05:22;9.18;;;8.23;;
10283;SDS011;5187;52.378;9.018;2022-09-13T07:07:52;8.48;;;7.68;;
10283;SDS011;5187;52.378;9.018;2022-09-13T07:10:21;8.52;;;7.72;;
10283;SDS011;5187;52.378;9.018;2022-09-13T07:12:49;10.40;;;7.80;;
10283;SDS011;5187;52.378;9.018;2022-09-13T07:15:18;9.65;;;8.20;;
10283;SDS011;5187;52.378;9.018;2022-09-13T07:17:46;8.43;;;7.60;;
10283;SDS011;5187;52.378;9.018;2022-09-13T07:20:14;10.23;;;8.38;;
10283;SDS011;5187;52.378;9.018;2022-09-13T07:22:43;8.98;;;8.07;;
10283;SDS011;5187;52.378;9.018;2022-09-13T07:25:13;9.10;;;8.20;;
10283;SDS011;5187;52.378;9.018;2022-09-13T07:27:41;8.93;;;8.02;;
10283;SDS011;5187;52.378;9.018;2022-09-13T07:30:10;7.95;;;7.25;;
10283;SDS011;5187;52.378;9.018;2022-09-13T07:32:38;9.50;;;8.60;;
10283;SDS011;5187;52.378;9.018;2022-09-13T07:35:07;8.93;;;8.02;;
10283;SDS011;5187;52.378;9.018;2022-09-13T07:37:37;8.77;;;7.90;;
10283;SDS011;5187;52.378;9.018;2022-09-13T07:40:07;8.75;;;7.93;;
10283;SDS011;5187;52.378;9.018;2022-09-13T07:42:38;9.45;;;8.48;;
10283;SDS011;5187;52.378;9.018;2022-09-13T07:45:06;9.57;;;8.05;;
10283;SDS011;5187;52.378;9.018;2022-09-13T07:47:35;10.05;;;8.35;;
10283;SDS011;5187;52.378;9.018;2022-09-13T07:50:04;9.43;;;8.25;;
10283;SDS011;5187;52.378;9.018;2022-09-13T07:52:32;9.55;;;8.55;;
10283;SDS011;5187;52.378;9.018;2022-09-13T07:55:03;9.82;;;8.77;;
10283;SDS011;5187;52.378;9.018;2022-09-13T07:57:32;10.40;;;9.10;;
10283;SDS011;5187;52.378;9.018;2022-09-13T08:00:02;10.63;;;9.52;;
10283;SDS011;5187;52.378;9.018;2022-09-13T08:02:30;10.23;;;9.23;;
10283;SDS011;5187;52.378;9.018;2022-09-13T08:04:59;11.60;;;9.15;;
10283;SDS011;5187;52.378;9.018;2022-09-13T08:07:27;10.00;;;9.00;;
10283;SDS011;5187;52.378;9.018;2022-09-13T08:09:58;9.93;;;8.93;;
10283;SDS011;5187;52.378;9.018;2022-09-13T08:12:26;11.13;;;9.07;;
10283;SDS011;5187;52.378;9.018;2022-09-13T08:14:55;10.52;;;9.52;;
10283;SDS011;5187;52.378;9.018;2022-09-13T08:17:25;10.90;;;9.60;;
10283;SDS011;5187;52.378;9.018;2022-09-13T08:19:53;10.98;;;9.90;;
10283;SDS011;5187;52.378;9.018;2022-09-13T08:22:21;11.52;;;10.52;;
10283;SDS011;5187;52.378;9.018;2022-09-13T08:24:50;11.23;;;10.15;;
10283;SDS011;5187;52.378;9.018;2022-09-13T08:27:18;12.05;;;10.88;;
10283;SDS011;5187;52.378;9.018;2022-09-13T08:29:47;12.02;;;10.80;;
10283;SDS011;5187;52.378;9.018;2022-09-13T08:32:15;12.50;;;11.13;;
10283;SDS011;5187;52.378;9.018;2022-09-13T08:34:45;13.30;;;11.93;;
10283;SDS011;5187;52.378;9.018;2022-09-13T08:37:13;13.23;;;11.30;;
10283;SDS011;5187;52.378;9.018;2022-09-13T08:39:42;13.25;;;11.45;;
10283;SDS011;5187;52.378;9.018;2022-09-13T08:42:21;13.55;;;11.13;;
10283;SDS011;5187;52.378;9.018;2022-09-13T08:44:51;13.65;;;12.25;;
10283;SDS011;5187;52.378;9.018;2022-09-13T08:47:23;13.63;;;12.32;;
10283;SDS011;5187;52.378;9.018;2022-09-13T08:49:57;13.95;;;12.15;;
10283;SDS011;5187;52.378;9.018;2022-09-13T08:52:28;13.68;;;11.98;;
10283;SDS011;5187;52.378;9.018;2022-09-13T08:54:57;14.32;;;12.65;;
10283;SDS011;5187;52.378;9.018;2022-09-13T08:57:30;13.68;;;12.38;;
10283;SDS011;5187;52.378;9.018;2022-09-13T09:00:01;14.27;;;12.77;;
10283;SDS011;5187;52.378;9.018;2022-09-13T09:02:38;13.77;;;12.07;;
10283;SDS011;5187;52.378;9.018;2022-09-13T09:05:12;15.57;;;12.77;;
10283;SDS011;5187;52.378;9.018;2022-09-13T09:07:43;14.45;;;12.95;;
10283;SDS011;5187;52.378;9.018;2022-09-13T09:10:13;14.95;;;13.27;;
10283;SDS011;5187;52.378;9.018;2022-09-13T09:12:44;16.17;;;14.35;;
10283;SDS011;5187;52.378;9.018;2022-09-13T09:15:14;15.18;;;13.68;;
10283;SDS011;5187;52.378;9.018;2022-09-13T09:17:45;15.88;;;13.73;;
10283;SDS011;5187;52.378;9.018;2022-09-13T09:20:22;17.67;;;15.32;;
10283;SDS011;5187;52.378;9.018;2022-09-13T09:22:52;18.60;;;16.55;;
10283;SDS011;5187;52.378;9.018;2022-09-13T09:25:21;12.90;;;11.60;;
10283;SDS011;5187;52.378;9.018;2022-09-13T09:27:50;17.50;;;15.20;;
10283;SDS011;5187;52.378;9.018;2022-09-13T09:30:19;16.23;;;14.55;;
10283;SDS011;5187;52.378;9.018;2022-09-13T09:35:41;15.18;;;13.60;;
10283;SDS011;5187;52.378;9.018;2022-09-13T09:40:57;17.15;;;15.23;;
10283;SDS011;5187;52.378;9.018;2022-09-13T09:43:27;19.80;;;15.18;;
10283;SDS011;5187;52.378;9.018;2022-09-13T09:45:59;16.83;;;15.13;;
10283;SDS011;5187;52.378;9.018;2022-09-13T09:48:29;17.80;;;15.00;;
10283;SDS011;5187;52.378;9.018;2022-09-13T09:51:04;15.73;;;14.07;;
10283;SDS011;5187;52.378;9.018;2022-09-13T09:53:36;15.60;;;14.00;;
10283;SDS011;5187;52.378;9.018;2022-09-13T09:56:11;16.58;;;14.60;;
10283;SDS011;5187;52.378;9.018;2022-09-13T09:58:43;16.58;;;14.77;;
10283;SDS011;5187;52.378;9.018;2022-09-13T10:01:16;17.33;;;15.43;;
10283;SDS011;5187;52.378;9.018;2022-09-13T10:03:49;17.80;;;14.77;;
10283;SDS011;5187;52.378;9.018;2022-09-13T10:06:20;16.15;;;14.55;;
10283;SDS011;5187;52.378;9.018;2022-09-13T10:08:53;16.70;;;14.77;;
10283;SDS011;5187;52.378;9.018;2022-09-13T10:11:22;16.83;;;14.55;;
10283;SDS011;5187;52.378;9.018;2022-09-13T10:13:59;17.05;;;15.35;;
10283;SDS011;5187;52.378;9.018;2022-09-13T10:16:28;17.88;;;16.23;;
10283;SDS011;5187;52.378;9.018;2022-09-13T10:21:42;16.38;;;14.73;;
10283;SDS011;5187;52.378;9.018;2022-09-13T10:24:15;15.60;;;14.13;;
10283;SDS011;5187;52.378;9.018;2022-09-13T10:26:44;24.73;;;20.83;;
10283;SDS011;5187;52.378;9.018;2022-09-13T10:29:13;16.50;;;13.90;;
10283;SDS011;5187;52.378;9.018;2022-09-13T10:31:43;15.77;;;13.45;;
10283;SDS011;5187;52.378;9.018;2022-09-13T10:34:13;16.10;;;13.80;;
10283;SDS011;5187;52.378;9.018;2022-09-13T10:36:52;14.23;;;12.73;;
10283;SDS011;5187;52.378;9.018;2022-09-13T10:39:22;15.43;;;13.80;;
10283;SDS011;5187;52.378;9.018;2022-09-13T10:41:51;13.20;;;11.80;;
10283;SDS011;5187;52.378;9.018;2022-09-13T10:44:23;12.05;;;10.35;;
10283;SDS011;5187;52.378;9.018;2022-09-13T10:46:52;12.63;;;10.60;;
10283;SDS011;5187;52.378;9.018;2022-09-13T10:49:33;11.80;;;10.65;;
10283;SDS011;5187;52.378;9.018;2022-09-13T10:54:46;12.38;;;9.55;;
10283;SDS011;5187;52.378;9.018;2022-09-13T10:57:27;10.27;;;9.05;;
10283;SDS011;5187;52.378;9.018;2022-09-13T10:59:58;9.90;;;8.88;;
10283;SDS011;5187;52.378;9.018;2022-09-13T11:02:31;12.73;;;10.15;;
10283;SDS011;5187;52.378;9.018;2022-09-13T11:05:07;12.20;;;10.00;;
10283;SDS011;5187;52.378;9.018;2022-09-13T11:07:53;10.45;;;9.20;;
10283;SDS011;5187;52.378;9.018;2022-09-13T11:10:28;11.50;;;8.68;;
10283;SDS011;5187;52.378;9.018;2022-09-13T11:13:01;10.35;;;8.50;;
10283;SDS011;5187;52.378;9.018;2022-09-13T11:15:37;10.25;;;8.13;;
10283;SDS011;5187;52.378;9.018;2022-09-13T11:18:19;12.57;;;8.88;;
10283;SDS011;5187;52.378;9.018;2022-09-13T11:20:52;10.65;;;8.88;;
10283;SDS011;5187;52.378;9.018;2022-09-13T11:29:07;12.43;;;9.77;;
10283;SDS011;5187;52.378;9.018;2022-09-13T11:31:39;12.18;;;9.98;;
10283;SDS011;5187;52.378;9.018;2022-09-13T11:34:15;11.30;;;10.15;;
10283;SDS011;5187;52.378;9.018;2022-09-13T11:36:58;13.82;;;9.85;;
10283;SDS011;5187;52.378;9.018;2022-09-13T11:39:30;13.07;;;10.23;;
10283;SDS011;5187;52.378;9.018;2022-09-13T11:42:03;16.15;;;10.98;;
10283;SDS011;5187;52.378;9.018;2022-09-13T11:44:42;11.55;;;9.00;;
10283;SDS011;5187;52.378;9.018;2022-09-13T11:47:15;6.68;;;5.97;;
10283;SDS011;5187;52.378;9.018;2022-09-13T11:49:51;6.22;;;5.05;;
10283;SDS011;5187;52.378;9.018;2022-09-13T11:52:26;4.95;;;4.40;;
10283;SDS011;5187;52.378;9.018;2022-09-13T11:55:02;7.18;;;4.53;;
10283;SDS011;5187;52.378;9.018;2022-09-13T11:57:34;4.80;;;4.30;;
10283;SDS011;5187;52.378;9.018;2022-09-13T12:00:08;6.32;;;4.30;;
10283;SDS011;5187;52.378;9.018;2022-09-13T12:02:44;4.00;;;3.70;;
10283;SDS011;5187;52.378;9.018;2022-09-13T12:05:15;5.40;;;4.15;;
10283;SDS011;5187;52.378;9.018;2022-09-13T12:07:49;5.38;;;3.45;;
10283;SDS011;5187;52.378;9.018;2022-09-13T12:10:20;3.80;;;3.38;;
10283;SDS011;5187;52.378;9.018;2022-09-13T12:12:50;3.25;;;2.80;;
10283;SDS011;5187;52.378;9.018;2022-09-13T12:15:22;3.53;;;2.50;;
10283;SDS011;5187;52.378;9.018;2022-09-13T12:17:55;3.90;;;2.67;;
10283;SDS011;5187;52.378;9.018;2022-09-13T12:20:28;3.97;;;2.50;;
10283;SDS011;5187;52.378;9.018;2022-09-13T12:22:58;3.70;;;2.60;;
10283;SDS011;5187;52.378;9.018;2022-09-13T12:25:30;5.03;;;2.60;;
10283;SDS011;5187;52.378;9.018;2022-09-13T12:28:02;5.53;;;2.33;;
10283;SDS011;5187;52.378;9.018;2022-09-13T12:30:36;3.30;;;2.25;;
10283;SDS011;5187;52.378;9.018;2022-09-13T12:33:06;3.25;;;2.22;;
10283;SDS011;5187;52.378;9.018;2022-09-13T12:35:35;3.33;;;2.10;;
10283;SDS011;5187;52.378;9.018;2022-09-13T12:38:11;3.35;;;2.28;;
10283;SDS011;5187;52.378;9.018;2022-09-13T12:40:45;2.70;;;1.95;;
10283;SDS011;5187;52.378;9.018;2022-09-13T12:43:19;2.78;;;2.13;;
10283;SDS011;5187;52.378;9.018;2022-09-13T12:45:59;3.03;;;2.20;;
10283;SDS011;5187;52.378;9.018;2022-09-13T12:48:35;2.25;;;2.05;;
10283;SDS011;5187;52.378;9.018;2022-09-13T12:51:14;5.35;;;1.80;;
10283;SDS011;5187;52.378;9.018;2022-09-13T12:54:01;2.50;;;1.58;;
10283;SDS011;5187;52.378;9.018;2022-09-13T12:56:41;2.28;;;1.70;;
10283;SDS011;5187;52.378;9.018;2022-09-13T12:59:35;2.05;;;1.20;;
10283;SDS011;5187;52.378;9.018;2022-09-13T13:02:21;1.00;;;1.00;;
10283;SDS011;5187;52.378;9.018;2022-09-13T13:04:51;1.58;;;1.30;;
10283;SDS011;5187;52.378;9.018;2022-09-13T13:07:21;2.35;;;1.35;;
10283;SDS011;5187;52.378;9.018;2022-09-13T13:09:51;3.38;;;2.10;;
10283;SDS011;5187;52.378;9.018;2022-09-13T13:12:25;2.17;;;1.50;;
10283;SDS011;5187;52.378;9.018;2022-09-13T13:14:55;2.25;;;1.58;;
10283;SDS011;5187;52.378;9.018;2022-09-13T13:17:35;2.08;;;1.20;;
10283;SDS011;5187;52.378;9.018;2022-09-13T13:22:48;2.95;;;1.40;;
10283;SDS011;5187;52.378;9.018;2022-09-13T13:25:30;2.35;;;1.63;;
10283;SDS011;5187;52.378;9.018;2022-09-13T13:28:00;2.20;;;1.50;;
10283;SDS011;5187;52.378;9.018;2022-09-13T13:33:25;4.20;;;1.45;;
10283;SDS011;5187;52.378;9.018;2022-09-13T13:36:00;2.70;;;1.30;;
10283;SDS011;5187;52.378;9.018;2022-09-13T13:38:48;2.85;;;1.30;;
10283;SDS011;5187;52.378;9.018;2022-09-13T13:41:37;2.05;;;1.40;;
10283;SDS011;5187;52.378;9.018;2022-09-13T13:46:49;3.10;;;1.50;;
10283;SDS011;5187;52.378;9.018;2022-09-13T13:49:41;2.08;;;1.10;;
10283;SDS011;5187;52.378;9.018;2022-09-13T13:52:33;2.58;;;1.08;;
10283;SDS011;5187;52.378;9.018;2022-09-13T13:55:04;1.55;;;0.95;;
10283;SDS011;5187;52.378;9.018;2022-09-13T13:57:56;2.80;;;1.10;;
10283;SDS011;5187;52.378;9.018;2022-09-13T14:00:30;3.88;;;1.23;;
10283;SDS011;5187;52.378;9.018;2022-09-13T14:03:06;2.35;;;1.40;;
10283;SDS011;5187;52.378;9.018;2022-09-13T14:05:39;1.65;;;0.75;;
10283;SDS011;5187;52.378;9.018;2022-09-13T14:08:28;3.08;;;1.20;;
10283;SDS011;5187;52.378;9.018;2022-09-13T14:11:00;3.45;;;1.50;;
10283;SDS011;5187;52.378;9.018;2022-09-13T14:13:41;3.05;;;1.50;;
10283;SDS011;5187;52.378;9.018;2022-09-13T14:16:14;4.50;;;1.33;;
10283;SDS011;5187;52.378;9.018;2022-09-13T14:19:04;2.40;;;1.00;;
10283;SDS011;5187;52.378;9.018;2022-09-13T14:21:36;2.30;;;1.20;;
10283;SDS011;5187;52.378;9.018;2022-09-13T14:24:08;3.67;;;1.30;;
10283;SDS011;5187;52.378;9.018;2022-09-13T14:26:36;4.45;;;1.00;;
10283;SDS011;5187;52.378;9.018;2022-09-13T14:29:06;2.70;;;1.10;;
10283;SDS011;5187;52.378;9.018;2022-09-13T14:31:35;4.00;;;1.45;;
10283;SDS011;5187;52.378;9.018;2022-09-13T14:34:04;6.88;;;1.25;;
10283;SDS011;5187;52.378;9.018;2022-09-13T14:39:17;1.88;;;1.00;;
10283;SDS011;5187;52.378;9.018;2022-09-13T14:41:45;1.80;;;1.08;;
10283;SDS011;5187;52.378;9.018;2022-09-13T14:44:15;3.63;;;0.90;;
10283;SDS011;5187;52.378;9.018;2022-09-13T14:47:02;1.38;;;0.60;;
10283;SDS011;5187;52.378;9.018;2022-09-13T14:49:34;1.40;;;0.80;;
10283;SDS011;5187;52.378;9.018;2022-09-13T14:52:03;2.22;;;1.50;;
10283;SDS011;5187;52.378;9.018;2022-09-13T14:54:36;3.25;;;1.83;;
10283;SDS011;5187;52.378;9.018;2022-09-13T14:57:06;3.58;;;1.63;;
10283;SDS011;5187;52.378;9.018;2022-09-13T14:59:39;2.67;;;1.20;;
10283;SDS011;5187;52.378;9.018;2022-09-13T15:02:15;3.33;;;1.70;;
10283;SDS011;5187;52.378;9.018;2022-09-13T15:04:46;2.25;;;1.45;;
10283;SDS011;5187;52.378;9.018;2022-09-13T15:07:18;3.33;;;2.20;;
10283;SDS011;5187;52.378;9.018;2022-09-13T15:09:49;4.13;;;1.30;;
10283;SDS011;5187;52.378;9.018;2022-09-13T15:12:21;4.57;;;1.05;;
10283;SDS011;5187;52.378;9.018;2022-09-13T15:20:17;4.35;;;1.40;;
10283;SDS011;5187;52.378;9.018;2022-09-13T15:22:46;3.15;;;1.23;;
10283;SDS011;5187;52.378;9.018;2022-09-13T15:25:18;6.75;;;3.75;;
10283;SDS011;5187;52.378;9.018;2022-09-13T15:27:47;2.55;;;1.20;;
10283;SDS011;5187;52.378;9.018;2022-09-13T15:30:20;0.85;;;0.70;;
10283;SDS011;5187;52.378;9.018;2022-09-13T15:32:48;3.72;;;1.27;;
10283;SDS011;5187;52.378;9.018;2022-09-13T15:35:17;3.63;;;1.20;;
10283;SDS011;5187;52.378;9.018;2022-09-13T15:37:57;2.55;;;0.93;;
10283;SDS011;5187;52.378;9.018;2022-09-13T15:40:28;1.08;;;0.80;;
10283;SDS011;5187;52.378;9.018;2022-09-13T15:42:57;2.33;;;0.88;;
10283;SDS011;5187;52.378;9.018;2022-09-13T15:45:27;2.10;;;0.90;;
10283;SDS011;5187;52.378;9.018;2022-09-13T15:47:55;1.65;;;0.70;;
10283;SDS011;5187;52.378;9.018;2022-09-13T15:50:24;3.33;;;1.00;;
10283;SDS011;5187;52.378;9.018;2022-09-13T15:52:54;1.67;;;0.80;;
10283;SDS011;5187;52.378;9.018;2022-09-13T15:55:22;2.70;;;0.60;;